Time;durP1;ratioP1;P1;durP2;ratioP2;P2;SDS_P1;SDS_P2;PMS_P1;PMS_P2;Temp;Humidity;BMP_temperature;BMP_pressure;BME280_temperature;BME280_humidity;BME280_pressure;Samples;Min_cycle;Max_cycle;Signal;HPM_P1;HPM_P2
2023/08/16 00:00:31;;;;;;;13.60;8.80;;;;;;;21.39;80.03;100527.27;212754;1293;140642;-83
2023/08/16 00:05:32;;;;;;;12.30;7.30;;;;;;;21.31;79.81;100532.88;213531;1291;99279;-83
2023/08/16 00:10:33;;;;;;;14.00;7.90;;;;;;;21.26;79.37;100537.30;212714;1291;141809;-83
2023/08/16 00:15:33;;;;;;;12.20;7.90;;;;;;;21.20;79.07;100548.10;213244;1293;139300;-82
2023/08/16 00:20:34;;;;;;;12.90;8.30;;;;;;;21.15;79.10;100543.70;212883;1290;140703;-82
2023/08/16 00:25:34;;;;;;;15.10;9.20;;;;;;;21.12;79.00;100541.23;214058;1291;139601;-83
2023/08/16 00:30:35;;;;;;;12.40;8.90;;;;;;;21.09;78.96;100535.16;213843;1291;141216;-83
2023/08/16 00:35:35;;;;;;;18.40;8.90;;;;;;;21.09;78.73;100535.33;214493;1293;98032;-83
2023/08/16 00:40:35;;;;;;;14.50;8.50;;;;;;;21.08;78.59;100533.76;214008;1292;141756;-82
2023/08/16 00:45:36;;;;;;;11.90;8.10;;;;;;;21.07;78.69;100534.02;214688;1293;139119;-82
2023/08/16 00:50:37;;;;;;;12.80;8.70;;;;;;;21.05;78.47;100539.85;214055;1293;141313;-83
2023/08/16 00:55:38;;;;;;;13.50;8.30;;;;;;;21.04;79.28;100543.48;214610;1291;140310;-83
2023/08/16 01:00:38;;;;;;;12.20;8.10;;;;;;;21.00;79.54;100556.29;214084;1292;140679;-83
2023/08/16 01:05:39;;;;;;;16.60;9.80;;;;;;;20.96;81.35;100563.62;216305;1290;97670;-83
2023/08/16 01:10:50;;;;;;;15.80;8.90;;;;;;;20.89;81.44;100566.83;217033;1291;140969;-82
2023/08/16 01:15:52;;;;;;;18.30;9.00;;;;;;;20.81;81.23;100565.63;216059;1295;139854;-82
2023/08/16 01:20:55;;;;;;;14.60;9.60;;;;;;;20.72;82.09;100563.55;213326;1295;142033;-82
2023/08/16 01:26:16;;;;;;;17.20;10.10;;;;;;;20.59;82.47;100549.70;213735;1291;139432;-83
2023/08/16 01:31:17;;;;;;;15.80;9.60;;;;;;;20.51;82.57;100545.38;212876;1291;142423;-83
2023/08/16 01:36:17;;;;;;;12.00;8.80;;;;;;;20.46;82.69;100542.73;213563;1293;138972;-82
2023/08/16 01:41:30;;;;;;;13.70;9.50;;;;;;;20.39;83.07;100532.93;213044;1294;141201;-83
2023/08/16 01:46:33;;;;;;;13.60;9.50;;;;;;;20.34;83.29;100540.34;213354;1295;139420;-83
2023/08/16 01:51:34;;;;;;;15.90;10.80;;;;;;;20.27;84.40;100545.88;213076;1293;141867;-83
2023/08/16 01:56:34;;;;;;;18.50;10.00;;;;;;;20.21;84.29;100543.80;213491;1293;139646;-83
2023/08/16 02:01:35;;;;;;;14.10;9.00;;;;;;;20.13;84.73;100545.52;212953;1295;142569;-83
2023/08/16 02:06:35;;;;;;;12.50;9.50;;;;;;;20.04;85.01;100545.40;213550;1295;139539;-83
2023/08/16 02:11:35;;;;;;;13.30;9.40;;;;;;;19.95;85.42;100542.67;213341;1291;141331;-83
2023/08/16 02:16:36;;;;;;;14.30;9.50;;;;;;;19.90;85.52;100543.95;214352;1291;138659;-83
2023/08/16 02:21:36;;;;;;;11.80;8.80;;;;;;;19.84;86.73;100543.20;214099;1292;140948;-84
2023/08/16 02:26:37;;;;;;;13.70;9.00;;;;;;;19.79;87.35;100545.08;214737;1291;138995;-83
2023/08/16 02:31:39;;;;;;;13.00;9.40;;;;;;;19.72;87.66;100539.59;213911;1293;141835;-84
2023/08/16 02:36:40;;;;;;;15.80;9.70;;;;;;;19.66;87.69;100537.34;214687;1295;138964;-83
2023/08/16 02:41:40;;;;;;;13.20;9.50;;;;;;;19.59;88.36;100529.29;214165;1294;142973;-83
2023/08/16 02:46:41;;;;;;;14.20;9.60;;;;;;;19.55;87.23;100532.09;214452;1295;139146;-83
2023/08/16 02:51:41;;;;;;;14.00;10.50;;;;;;;19.53;87.20;100530.88;214488;1293;141500;-83
2023/08/16 02:56:41;;;;;;;13.60;9.60;;;;;;;19.50;87.27;100524.16;217426;1291;139673;-83
2023/08/16 03:01:42;;;;;;;17.50;11.00;;;;;;;19.49;87.31;100521.00;217042;1292;140903;-82
2023/08/16 03:06:45;;;;;;;16.60;11.20;;;;;;;19.48;87.52;100520.86;214040;1295;139043;-82
2023/08/16 03:11:45;;;;;;;13.70;10.80;;;;;;;19.47;87.63;100522.34;213257;1292;142700;-82
2023/08/16 03:16:46;;;;;;;16.00;11.30;;;;;;;19.45;87.15;100536.08;213986;1292;98912;-82
2023/08/16 03:21:46;;;;;;;14.60;10.70;;;;;;;19.43;88.25;100541.73;213024;1293;141825;-83
2023/08/16 03:26:49;;;;;;;16.20;10.80;;;;;;;19.41;88.43;100539.61;213580;1295;140615;-83
2023/08/16 03:31:49;;;;;;;17.70;11.40;;;;;;;19.39;88.62;100545.00;213175;1291;141411;-82
2023/08/16 03:36:50;;;;;;;19.10;12.30;;;;;;;19.35;89.05;100544.93;213700;1293;139909;-83
2023/08/16 03:41:50;;;;;;;16.30;10.80;;;;;;;19.33;89.19;100554.48;213145;1294;142500;-82
2023/08/16 03:46:51;;;;;;;18.90;12.40;;;;;;;19.30;89.76;100558.05;213859;1290;97980;-82
2023/08/16 03:51:51;;;;;;;16.20;11.30;;;;;;;19.27;90.30;100558.44;213190;1292;141529;-82
2023/08/16 03:56:51;;;;;;;17.30;11.60;;;;;;;19.24;90.58;100565.91;214121;1293;139239;-82
2023/08/16 04:01:52;;;;;;;14.30;11.40;;;;;;;19.21;91.28;100572.19;213810;1295;141698;-83
2023/08/16 04:06:53;;;;;;;16.40;12.20;;;;;;;19.14;91.72;100569.69;214799;1292;140219;-83
2023/08/16 04:11:54;;;;;;;14.70;11.00;;;;;;;19.10;92.51;100578.95;214198;1291;141241;-82
2023/08/16 04:16:54;;;;;;;19.80;12.20;;;;;;;19.08;93.09;100582.74;214849;1292;98491;-82
2023/08/16 04:21:54;;;;;;;14.90;11.00;;;;;;;19.05;93.35;100587.16;214236;1289;140914;-82
2023/08/16 04:26:55;;;;;;;16.20;13.40;;;;;;;19.05;93.33;100597.15;214566;1294;139083;-83
2023/08/16 04:31:56;;;;;;;16.20;11.30;;;;;;;19.06;93.55;100600.55;214033;1293;142358;-82
2023/08/16 04:36:56;;;;;;;18.40;13.30;;;;;;;19.10;93.99;100607.01;214438;1291;139077;-82
2023/08/16 04:41:57;;;;;;;20.30;13.90;;;;;;;19.14;94.61;100606.76;215415;1289;142098;-82
2023/08/16 04:46:58;;;;;;;16.40;12.90;;;;;;;19.18;95.16;100609.70;217561;1293;112207;-82
2023/08/16 04:51:59;;;;;;;16.60;11.70;;;;;;;19.24;96.43;100601.55;216652;1291;143517;-82
2023/08/16 04:56:59;;;;;;;21.50;14.00;;;;;;;19.28;96.38;100606.89;213822;1290;139139;-82
2023/08/16 05:01:59;;;;;;;27.50;14.60;;;;;;;19.33;96.07;100608.05;213240;1291;141340;-82
2023/08/16 05:07:00;;;;;;;18.20;12.90;;;;;;;19.39;96.48;100613.83;213523;1294;139853;-82
2023/08/16 05:12:00;;;;;;;17.30;12.80;;;;;;;19.46;96.39;100615.68;212989;1293;141530;-82
2023/08/16 05:17:00;;;;;;;17.90;13.90;;;;;;;19.52;96.19;100620.08;213632;1291;97995;-82
2023/08/16 05:22:01;;;;;;;23.60;15.40;;;;;;;19.59;97.02;100624.23;212860;1296;140639;-82
2023/08/16 05:27:02;;;;;;;21.60;15.70;;;;;;;19.68;97.10;100633.05;213393;1292;139442;-82
2023/08/16 05:32:02;;;;;;;22.20;17.70;;;;;;;19.78;97.29;100639.34;212958;1294;142422;-83
2023/08/16 05:37:05;;;;;;;24.20;19.00;;;;;;;19.92;99.03;100638.29;213297;1291;139141;-82
2023/08/16 05:42:06;;;;;;;25.50;19.40;;;;;;;20.15;99.82;100643.59;213007;1291;143334;-82
2023/08/16 05:47:06;;;;;;;26.20;19.50;;;;;;;20.46;100.00;100643.59;213995;1290;97974;-82
2023/08/16 05:52:06;;;;;;;24.60;21.00;;;;;;;20.92;100.00;100638.88;214219;1290;141555;-81
2023/08/16 05:57:07;;;;;;;23.90;19.30;;;;;;;21.42;100.00;100643.91;214951;1291;139643;-82
2023/08/16 06:02:07;;;;;;;24.90;19.10;;;;;;;21.89;100.00;100637.58;214296;1291;141300;-82
2023/08/16 06:07:08;;;;;;;22.80;17.70;;;;;;;22.39;99.66;100636.66;214678;1295;139399;-82
2023/08/16 06:12:09;;;;;;;21.40;16.90;;;;;;;22.90;97.99;100635.11;214264;1290;141888;-82
2023/08/16 06:17:10;;;;;;;24.60;17.60;;;;;;;23.33;96.42;100638.61;215089;1293;97971;-82
2023/08/16 06:22:10;;;;;;;23.70;16.10;;;;;;;23.65;94.99;100640.11;214284;1292;140585;-82
2023/08/16 06:27:11;;;;;;;19.60;16.60;;;;;;;23.89;93.79;100640.34;214983;1292;138914;-82
2023/08/16 06:32:11;;;;;;;19.60;15.40;;;;;;;24.04;92.77;100647.37;216394;1290;141557;-82
2023/08/16 06:37:11;;;;;;;19.90;13.70;;;;;;;24.21;92.56;100654.59;217654;1290;139079;-82
2023/08/16 06:42:13;;;;;;;18.50;14.20;;;;;;;24.44;92.72;100665.59;214926;1291;142342;-81
2023/08/16 06:47:14;;;;;;;16.90;13.20;;;;;;;24.61;91.70;100674.53;213961;1296;99414;-82
2023/08/16 06:52:14;;;;;;;16.90;14.30;;;;;;;24.73;90.80;100681.90;213116;1290;141754;-82
2023/08/16 06:57:15;;;;;;;15.80;13.10;;;;;;;24.83;90.41;100695.87;213532;1291;139476;-82
2023/08/16 07:02:15;;;;;;;18.60;12.50;;;;;;;24.91;89.96;100701.85;213089;1297;141370;-82
2023/08/16 07:07:16;;;;;;;16.10;11.90;;;;;;;25.05;89.68;100707.42;213351;1297;139123;-82
2023/08/16 07:12:16;;;;;;;15.90;12.80;;;;;;;25.16;89.24;100708.59;212958;1290;141214;-81
2023/08/16 07:17:16;;;;;;;14.60;12.10;;;;;;;25.15;88.52;100711.10;213552;1291;98379;-81
2023/08/16 07:22:17;;;;;;;16.20;12.20;;;;;;;25.19;88.46;100711.76;213027;1291;141532;-81
2023/08/16 07:27:17;;;;;;;16.80;11.50;;;;;;;25.24;88.42;100718.46;213520;1291;139424;-81
2023/08/16 07:32:18;;;;;;;12.20;10.70;;;;;;;25.25;88.12;100722.73;213186;1291;143254;-81
2023/08/16 07:37:21;;;;;;;15.70;11.00;;;;;;;25.28;87.78;100725.45;213854;1292;139351;-82
2023/08/16 07:42:23;;;;;;;12.60;10.00;;;;;;;25.36;88.24;100729.11;214127;1290;140844;-81
2023/08/16 07:47:23;;;;;;;14.10;10.50;;;;;;;25.47;88.20;100731.42;214683;1291;99178;-81
2023/08/16 07:52:24;;;;;;;14.10;9.60;;;;;;;25.55;87.50;100732.77;214053;1291;143826;-81
2023/08/16 07:57:24;;;;;;;14.80;9.20;;;;;;;25.63;87.29;100736.08;214655;1291;139329;-82
2023/08/16 08:02:25;;;;;;;14.70;10.50;;;;;;;25.72;87.36;100740.10;213903;1291;142005;-82
2023/08/16 08:07:25;;;;;;;13.10;9.90;;;;;;;25.85;86.99;100744.79;214292;1291;139338;-82
2023/08/16 08:12:26;;;;;;;13.10;9.80;;;;;;;25.99;87.57;100748.27;213773;1294;142621;-83
2023/08/16 08:17:27;;;;;;;12.70;9.50;;;;;;;26.18;87.44;100749.79;214903;1293;108375;-82
2023/08/16 08:22:27;;;;;;;11.80;9.90;;;;;;;26.45;87.58;100758.95;217074;1290;141417;-83
2023/08/16 08:27:28;;;;;;;14.00;9.70;;;;;;;26.87;86.50;100764.93;217581;1291;140003;-84
2023/08/16 08:32:28;;;;;;;14.10;9.50;;;;;;;27.52;86.21;100771.10;213377;1291;140635;-83
2023/08/16 08:37:28;;;;;;;16.10;10.50;;;;;;;28.31;84.54;100771.17;213715;1291;139943;-83
2023/08/16 08:42:30;;;;;;;11.40;9.00;;;;;;;29.12;81.83;100779.77;213207;1293;141986;-82
2023/08/16 08:47:31;;;;;;;11.20;9.00;;;;;;;29.95;80.05;100776.83;213300;1295;98068;-82
2023/08/16 08:52:32;;;;;;;14.60;9.60;;;;;;;30.79;77.52;100779.04;212727;1291;141347;-83
2023/08/16 08:57:35;;;;;;;12.70;9.30;;;;;;;31.67;74.42;100779.67;213180;1295;139361;-83
2023/08/16 09:02:36;;;;;;;12.70;9.90;;;;;;;32.39;71.95;100782.47;212821;1289;141506;-83
2023/08/16 09:07:39;;;;;;;11.60;9.60;;;;;;;33.22;69.92;100780.73;213500;1290;138576;-83
2023/08/16 09:12:40;;;;;;;11.40;8.70;;;;;;;34.12;67.13;100788.77;212695;1294;141332;-83
2023/08/16 09:17:40;;;;;;;13.60;9.40;;;;;;;34.88;63.13;100798.62;213366;1291;97857;-83
2023/08/16 09:22:41;;;;;;;11.20;8.80;;;;;;;35.48;62.08;100804.73;213160;1291;138619;-83
2023/08/16 09:27:42;;;;;;;12.20;8.60;;;;;;;36.14;59.29;100798.14;213830;1291;138886;-83
2023/08/16 09:32:44;;;;;;;11.00;8.50;;;;;;;36.77;57.81;100797.18;213998;1290;141832;-83
2023/08/16 09:37:45;;;;;;;11.90;8.10;;;;;;;37.40;55.19;100799.86;214324;1293;138833;-83
2023/08/16 09:42:46;;;;;;;12.10;8.80;;;;;;;37.84;53.58;100798.96;213873;1293;140137;-84
2023/08/16 09:47:46;;;;;;;9.90;8.30;;;;;;;38.16;50.30;100798.21;214505;1290;98493;-83
2023/08/16 09:52:48;;;;;;;11.00;8.80;;;;;;;38.31;50.71;100797.17;214007;1293;139950;-84
2023/08/16 09:57:48;;;;;;;11.70;7.80;;;;;;;38.66;48.77;100798.58;213005;1291;1977737;-82
2023/08/16 10:02:50;;;;;;;11.50;8.00;;;;;;;38.79;48.77;100798.06;214063;1291;140619;-84
2023/08/16 10:07:52;;;;;;;12.80;7.50;;;;;;;39.11;47.86;100801.69;216179;1290;138676;-83
2023/08/16 10:12:53;;;;;;;9.80;7.00;;;;;;;39.49;46.78;100798.95;217003;1290;140644;-82
2023/08/16 10:17:57;;;;;;;8.90;7.70;;;;;;;39.84;46.26;100794.61;215905;1292;138435;-83
2023/08/16 10:22:57;;;;;;;;;;;;;;;40.27;45.54;100795.56;213409;1290;139794;-83
2023/08/16 10:28:02;;;;;;;10.50;7.10;;;;;;;40.57;44.10;100798.21;213306;1291;124320;-83
2023/08/16 10:33:10;;;;;;;12.10;8.50;;;;;;;40.72;43.97;100794.77;212968;1291;141874;-83
2023/08/16 10:38:11;;;;;;;10.20;7.40;;;;;;;40.75;42.82;100800.58;213351;1292;138291;-83
2023/08/16 10:43:11;;;;;;;10.10;7.30;;;;;;;40.83;43.28;100795.52;213058;1293;140634;-83
2023/08/16 10:48:17;;;;;;;9.30;7.70;;;;;;;41.15;42.57;100796.64;213403;1291;138183;-83
2023/08/16 10:53:18;;;;;;;9.30;7.20;;;;;;;40.98;40.79;100796.46;213088;1289;140958;-83
2023/08/16 10:58:28;;;;;;;10.70;7.60;;;;;;;40.87;41.76;100799.75;213441;1293;137963;-83
2023/08/16 11:03:33;;;;;;;11.20;7.50;;;;;;;40.96;41.24;100796.76;212776;1292;139978;-83
2023/08/16 11:08:34;;;;;;;9.00;7.50;;;;;;;41.06;40.80;100800.48;213379;1295;138355;-83
2023/08/16 11:13:35;;;;;;;9.70;6.90;;;;;;;41.31;40.46;100808.46;213226;1291;140223;-83
2023/08/16 11:18:40;;;;;;;8.60;6.90;;;;;;;41.34;39.80;100805.81;214172;1293;138660;-83
2023/08/16 11:23:41;;;;;;;7.20;5.90;;;;;;;41.08;40.19;100807.40;214034;1290;139720;-84
2023/08/16 11:28:42;;;;;;;10.20;6.20;;;;;;;41.01;39.42;100812.69;214307;1291;138270;-83
2023/08/16 11:33:43;;;;;;;10.40;5.80;;;;;;;41.08;40.16;100815.48;214110;1290;141234;-83
2023/08/16 11:38:43;;;;;;;7.20;5.60;;;;;;;41.03;39.25;100812.91;214538;1291;138790;-83
2023/08/16 11:43:44;;;;;;;7.00;5.30;;;;;;;40.99;39.48;100809.42;213969;1291;139609;-83
2023/08/16 11:48:45;;;;;;;7.60;5.10;;;;;;;40.93;39.22;100813.95;214319;1291;138678;-84
2023/08/16 11:53:46;;;;;;;7.30;5.20;;;;;;;40.93;39.24;100806.48;214396;1290;141433;-83
2023/08/16 11:58:47;;;;;;;8.00;5.00;;;;;;;40.86;38.74;100806.21;217509;1291;138073;-84
2023/08/16 12:04:32;;;;;;;7.30;4.60;;;;;;;40.54;38.33;100814.07;217043;1291;139744;-83
2023/08/16 12:09:39;;;;;;;7.10;4.80;;;;;;;40.22;38.66;100809.90;213174;1294;138902;-83
2023/08/16 12:14:39;;;;;;;7.60;4.70;;;;;;;40.12;38.52;100803.96;213512;1291;138023;-82
2023/08/16 12:19:40;;;;;;;6.70;4.30;;;;;;;39.59;38.40;100802.75;213120;1292;140027;-83
2023/08/16 12:24:40;;;;;;;7.00;4.90;;;;;;;38.89;38.90;100799.16;213601;1290;138124;-83
2023/08/16 12:29:41;;;;;;;6.60;4.50;;;;;;;38.74;39.69;100797.69;213206;1290;140665;-83
2023/08/16 12:34:41;;;;;;;7.50;4.20;;;;;;;38.53;40.03;100790.61;213585;1293;138772;-82
2023/08/16 12:39:41;;;;;;;7.40;4.50;;;;;;;38.41;40.93;100790.84;213123;1290;140146;-82
2023/08/16 12:44:42;;;;;;;7.20;4.40;;;;;;;38.44;40.98;100787.80;213509;1291;139218;-82
2023/08/16 12:49:42;;;;;;;6.80;4.50;;;;;;;38.32;41.09;100782.65;212999;1291;140049;-83
2023/08/16 12:54:43;;;;;;;5.50;4.40;;;;;;;38.28;41.74;100783.85;213770;1291;138620;-82
2023/08/16 12:59:46;;;;;;;8.40;4.90;;;;;;;38.33;40.81;100777.17;213613;1289;139699;-83
2023/08/16 13:04:47;;;;;;;;;;;;;;;38.13;40.90;100782.15;214513;1293;138014;-83
2023/08/16 13:09:47;;;;;;;8.30;5.00;;;;;;;37.73;41.20;100782.13;214371;1294;126062;-82
2023/08/16 13:14:48;;;;;;;8.30;4.40;;;;;;;37.65;41.80;100782.68;214691;1290;138186;-82
2023/08/16 13:19:51;;;;;;;6.20;4.40;;;;;;;37.34;41.74;100777.65;214200;1290;141117;-82
2023/08/16 13:24:52;;;;;;;5.90;4.00;;;;;;;37.30;42.88;100775.80;214620;1291;138198;-82
2023/08/16 13:29:52;;;;;;;7.10;4.50;;;;;;;37.27;41.98;100770.28;214081;1290;140380;-82
2023/08/16 13:34:53;;;;;;;7.50;4.40;;;;;;;37.03;42.79;100770.23;215023;1293;98277;-81
2023/08/16 13:39:53;;;;;;;9.30;4.10;;;;;;;36.79;42.53;100762.69;214256;1291;140690;-82
2023/08/16 13:44:54;;;;;;;9.80;4.60;;;;;;;36.66;43.89;100766.10;216357;1291;138202;-82
2023/08/16 13:49:54;;;;;;;7.70;4.60;;;;;;;36.82;44.09;100764.08;217036;1290;140062;-83
2023/08/16 13:54:54;;;;;;;9.50;4.60;;;;;;;36.82;43.77;100763.23;216179;1291;138160;-83
2023/08/16 13:59:55;;;;;;;6.90;4.50;;;;;;;36.68;44.23;100760.65;213212;1291;139851;-83
2023/08/16 14:04:56;;;;;;;7.50;4.50;;;;;;;36.49;44.07;100761.96;213738;1291;98306;-83
2023/08/16 14:09:56;;;;;;;6.50;4.10;;;;;;;36.22;44.85;100762.44;213110;1289;140660;-83
2023/08/16 14:14:57;;;;;;;8.00;4.20;;;;;;;35.89;45.39;100769.72;213466;1291;138794;-83
2023/08/16 14:19:57;;;;;;;6.90;4.30;;;;;;;35.90;46.44;100769.30;213039;1293;139843;-83
2023/08/16 14:24:58;;;;;;;8.30;4.80;;;;;;;35.67;45.90;100772.33;213710;1291;138879;-83
2023/08/16 14:29:58;;;;;;;6.60;4.30;;;;;;;35.34;46.62;100771.84;212917;1293;139613;-83
2023/08/16 14:34:58;;;;;;;7.20;4.70;;;;;;;35.26;46.66;100770.98;213594;1291;97950;-82
2023/08/16 14:39:59;;;;;;;7.00;4.30;;;;;;;34.90;46.48;100771.66;213169;1293;140556;-82
2023/08/16 14:44:59;;;;;;;7.70;4.20;;;;;;;34.61;47.29;100776.37;213689;1292;138226;-83
2023/08/16 14:50:01;;;;;;;9.80;4.40;;;;;;;34.28;48.35;100776.71;213489;1290;140321;-83
2023/08/16 14:55:02;;;;;;;6.00;3.60;;;;;;;34.16;48.96;100774.89;214675;1291;138563;-83
2023/08/16 15:00:07;;;;;;;6.60;4.30;;;;;;;34.14;49.59;100780.30;214217;1290;140058;-83
2023/08/16 15:05:09;;;;;;;8.60;4.70;;;;;;;33.90;49.14;100779.16;214660;1294;97974;-83
2023/08/16 15:10:10;;;;;;;8.50;4.30;;;;;;;33.46;49.27;100777.12;214171;1293;140145;-82
2023/08/16 15:15:12;;;;;;;10.70;3.90;;;;;;;33.12;49.81;100784.23;214771;1291;137992;-82
2023/08/16 15:20:13;;;;;;;7.30;4.50;;;;;;;32.83;50.42;100788.06;214228;1290;140129;-83
2023/08/16 15:25:13;;;;;;;9.20;4.30;;;;;;;32.60;51.60;100791.88;214624;1291;138034;-83
2023/08/16 15:30:14;;;;;;;6.00;3.80;;;;;;;32.37;52.00;100795.04;214395;1290;140845;-82
2023/08/16 15:35:14;;;;;;;6.70;3.70;;;;;;;32.24;52.67;100790.52;217540;1291;97185;-83
2023/08/16 15:40:15;;;;;;;8.60;4.40;;;;;;;32.08;53.35;100789.21;217022;1290;140012;-83
2023/08/16 15:45:15;;;;;;;6.50;3.90;;;;;;;31.92;53.83;100798.77;214482;1295;138395;-83
2023/08/16 15:50:16;;;;;;;7.40;4.00;;;;;;;31.79;54.73;100803.44;213198;1295;141161;-83
2023/08/16 15:55:16;;;;;;;6.80;4.00;;;;;;;31.71;55.17;100810.90;213628;1293;138165;-82
2023/08/16 16:00:17;;;;;;;6.00;4.50;;;;;;;31.66;55.54;100807.36;213169;1291;141515;-83
2023/08/16 16:05:18;;;;;;;8.30;4.30;;;;;;;31.43;55.67;100811.11;213681;1291;97929;-84
2023/08/16 16:10:18;;;;;;;9.30;3.60;;;;;;;31.18;56.30;100811.30;213117;1290;139696;-83
2023/08/16 16:15:19;;;;;;;7.70;3.60;;;;;;;30.98;56.95;100809.05;213646;1291;137988;-83
2023/08/16 16:20:19;;;;;;;6.90;3.90;;;;;;;30.76;57.40;100807.88;213134;1291;141002;-83
2023/08/16 16:25:20;;;;;;;6.80;4.10;;;;;;;30.55;58.00;100805.17;213712;1291;138438;-84
2023/08/16 16:30:20;;;;;;;10.20;4.10;;;;;;;30.41;58.76;100798.75;213214;1293;140855;-84
2023/08/16 16:35:23;;;;;;;5.20;3.40;;;;;;;30.26;58.67;100806.27;214196;1293;98078;-83
2023/08/16 16:40:24;;;;;;;5.90;3.70;;;;;;;30.11;59.57;100806.38;214468;1294;140695;-83
2023/08/16 16:45:24;;;;;;;9.50;3.70;;;;;;;29.92;59.84;100800.34;214839;1291;138633;-83
2023/08/16 16:50:25;;;;;;;8.00;4.10;;;;;;;29.71;60.39;100793.66;214341;1291;142733;-84
2023/08/16 16:55:25;;;;;;;6.70;3.90;;;;;;;29.51;61.23;100796.10;215331;1291;138795;-84
2023/08/16 17:00:26;;;;;;;6.00;3.70;;;;;;;29.38;61.67;100803.59;214786;1291;141382;-83
2023/08/16 17:05:28;;;;;;;7.50;3.60;;;;;;;29.25;61.66;100809.44;215428;1291;97968;-84
2023/08/16 17:10:28;;;;;;;6.50;3.30;;;;;;;29.10;62.16;100824.61;214770;1291;139727;-83
2023/08/16 17:15:29;;;;;;;11.20;4.40;;;;;;;28.97;62.68;100832.64;215285;1291;138401;-84
2023/08/16 17:20:31;;;;;;;7.10;3.80;;;;;;;28.84;62.71;100831.61;215303;1291;140129;-84
2023/08/16 17:25:32;;;;;;;6.10;3.70;;;;;;;28.65;62.94;100841.58;217614;1290;138717;-84
2023/08/16 17:30:33;;;;;;;7.30;3.70;;;;;;;28.51;63.33;100853.60;216921;1290;139823;-85
2023/08/16 17:35:33;;;;;;;5.30;3.30;;;;;;;28.44;63.84;100855.68;214130;1291;98365;-85
2023/08/16 17:40:34;;;;;;;13.40;4.40;;;;;;;28.32;64.67;100850.51;213037;1294;140982;-85
2023/08/16 17:45:34;;;;;;;7.70;3.40;;;;;;;28.15;65.17;100849.42;213856;1293;138572;-85
2023/08/16 17:50:34;;;;;;;8.20;4.00;;;;;;;27.97;65.70;100853.73;213070;1291;141091;-84
2023/08/16 17:55:35;;;;;;;8.30;3.70;;;;;;;27.81;66.15;100855.61;213651;1290;138690;-84
2023/08/16 18:00:36;;;;;;;8.90;4.30;;;;;;;27.65;66.57;100851.16;212960;1294;139679;-84
2023/08/16 18:05:36;;;;;;;8.30;3.90;;;;;;;27.51;67.01;100849.95;213689;1291;97965;-85
2023/08/16 18:10:37;;;;;;;8.90;4.10;;;;;;;27.29;67.66;100849.52;213007;1293;139791;-85
2023/08/16 18:15:38;;;;;;;6.60;3.90;;;;;;;27.10;68.26;100858.68;213576;1295;138986;-86
2023/08/16 18:20:38;;;;;;;7.60;4.10;;;;;;;26.94;68.75;100861.54;213093;1293;140798;-86
2023/08/16 18:25:38;;;;;;;6.30;4.00;;;;;;;26.76;69.43;100869.99;213700;1294;138034;-86
2023/08/16 18:30:39;;;;;;;11.50;5.30;;;;;;;26.60;69.81;100871.59;213329;1293;141201;-85
2023/08/16 18:35:39;;;;;;;8.00;4.30;;;;;;;26.46;70.73;100875.02;213559;1295;98109;-86
2023/08/16 18:40:40;;;;;;;8.10;4.20;;;;;;;26.34;71.25;100871.08;213259;1293;141252;-86
2023/08/16 18:45:46;;;;;;;9.10;4.80;;;;;;;26.21;71.61;100875.49;213658;1292;138545;-85
2023/08/16 18:50:46;;;;;;;8.80;4.40;;;;;;;26.03;72.63;100876.48;213658;1291;140360;-86
2023/08/16 18:55:47;;;;;;;10.20;4.10;;;;;;;25.87;72.95;100881.86;213704;1290;138787;-86
2023/08/16 19:00:53;;;;;;;8.70;4.30;;;;;;;25.74;73.91;100897.13;213326;1291;140069;-85
2023/08/16 19:05:54;;;;;;;8.00;4.10;;;;;;;25.58;74.15;100903.91;213903;1293;165557;-86
2023/08/16 19:10:54;;;;;;;10.00;4.70;;;;;;;25.45;74.51;100915.68;213695;1291;141847;-85
2023/08/16 19:15:56;;;;;;;10.20;4.70;;;;;;;25.30;74.90;100920.41;214258;1291;139268;-85
2023/08/16 19:20:57;;;;;;;15.90;4.90;;;;;;;25.17;75.24;100915.87;213755;1291;142701;-85
2023/08/16 19:25:57;;;;;;;9.20;3.90;;;;;;;25.02;75.61;100916.79;213926;1293;139669;-86
2023/08/16 19:30:58;;;;;;;9.30;4.20;;;;;;;24.90;75.64;100908.44;213281;1291;140218;-85
2023/08/16 19:35:59;;;;;;;8.80;4.00;;;;;;;24.75;76.13;100905.80;213574;1293;139709;-86
2023/08/16 19:40:59;;;;;;;8.50;3.90;;;;;;;24.62;76.33;100908.65;213114;1293;140764;-85
2023/08/16 19:46:00;;;;;;;8.60;4.00;;;;;;;24.50;76.57;100908.00;213738;1291;139332;-85
2023/08/16 19:51:00;;;;;;;8.80;3.50;;;;;;;24.39;77.05;100915.31;213162;1293;140281;-85
2023/08/16 19:56:01;;;;;;;5.30;3.40;;;;;;;24.28;77.48;100920.07;213775;1293;138825;-85
2023/08/16 20:01:01;;;;;;;9.20;4.00;;;;;;;24.17;77.96;100914.13;213047;1291;140682;-85
2023/08/16 20:06:02;;;;;;;9.00;4.20;;;;;;;24.07;78.46;100907.60;213489;1291;139367;-84
2023/08/16 20:11:03;;;;;;;8.10;4.00;;;;;;;23.98;78.76;100917.17;213204;1293;141656;-87
2023/08/16 20:16:03;;;;;;;9.00;4.40;;;;;;;23.87;79.83;100922.14;213957;1294;139204;-87
2023/08/16 20:21:04;;;;;;;7.10;4.00;;;;;;;23.77;80.08;100928.66;213442;1293;142056;-85
2023/08/16 20:26:05;;;;;;;9.40;5.00;;;;;;;23.69;80.55;100940.11;213891;1293;139703;-85
2023/08/16 20:31:05;;;;;;;7.90;3.90;;;;;;;23.62;81.04;100941.83;213123;1291;141875;-85
2023/08/16 20:36:06;;;;;;;10.60;4.80;;;;;;;23.51;81.57;100929.33;213727;1293;140202;-85
2023/08/16 20:41:07;;;;;;;9.70;4.10;;;;;;;23.40;82.23;100925.05;213288;1290;141110;-86
2023/08/16 20:46:08;;;;;;;9.10;4.40;;;;;;;23.32;82.99;100921.55;213594;1295;138721;-87
2023/08/16 20:51:08;;;;;;;8.20;4.80;;;;;;;23.23;83.13;100928.41;212910;1291;141684;-87
2023/08/16 20:56:09;;;;;;;7.60;4.30;;;;;;;23.14;83.68;100925.66;213395;1295;139705;-88
2023/08/16 21:01:09;;;;;;;13.00;4.70;;;;;;;23.02;83.83;100925.39;213249;1294;141618;-86
2023/08/16 21:06:09;;;;;;;9.60;3.90;;;;;;;22.92;83.32;100917.63;213826;1292;139337;-86
2023/08/16 21:11:10;;;;;;;9.00;4.10;;;;;;;22.82;83.16;100932.70;213486;1294;142848;-85
2023/08/16 21:16:11;;;;;;;10.00;4.20;;;;;;;22.75;83.50;100932.66;213888;1293;139366;-87
2023/08/16 21:21:12;;;;;;;9.70;4.00;;;;;;;22.63;83.78;100931.67;213315;1294;142239;-86
2023/08/16 21:26:12;;;;;;;7.90;3.60;;;;;;;22.51;83.33;100924.00;213801;1293;139411;-85
2023/08/16 21:31:13;;;;;;;9.40;3.80;;;;;;;22.41;82.71;100927.75;213047;1297;141929;-87
2023/08/16 21:36:13;;;;;;;11.00;3.80;;;;;;;22.31;82.28;100928.91;213300;1295;139536;-86
2023/08/16 21:41:14;;;;;;;8.50;3.50;;;;;;;22.22;81.98;100929.97;212901;1295;142526;-86
2023/08/16 21:46:14;;;;;;;8.40;3.50;;;;;;;22.11;81.89;100929.87;213550;1296;138542;-86
2023/08/16 21:51:14;;;;;;;7.40;2.90;;;;;;;22.03;81.92;100935.23;212970;1293;140731;-86
2023/08/16 21:56:17;;;;;;;9.20;3.20;;;;;;;21.89;81.72;100932.56;213355;1293;201417;-86
2023/08/16 22:01:17;;;;;;;6.70;3.50;;;;;;;21.76;81.54;100932.52;212937;1294;143438;-86
2023/08/16 22:06:18;;;;;;;8.00;3.10;;;;;;;21.65;81.26;100944.27;213309;1294;138861;-85
2023/08/16 22:11:19;;;;;;;6.40;3.20;;;;;;;21.58;81.36;100948.74;212945;1293;140770;-85
2023/08/16 22:16:20;;;;;;;8.40;3.90;;;;;;;21.51;81.39;100949.32;213399;1298;139094;-83
2023/08/16 22:21:20;;;;;;;9.20;3.30;;;;;;;21.46;81.47;100956.33;212786;1292;141296;-83
2023/08/16 22:26:21;;;;;;;12.70;3.20;;;;;;;21.37;81.37;100963.52;213231;1295;138969;-85
2023/08/16 22:31:23;;;;;;;6.80;3.20;;;;;;;21.28;81.53;100957.42;212775;1292;141848;-82
2023/08/16 22:36:23;;;;;;;7.20;3.00;;;;;;;21.18;81.82;100935.73;213280;1295;138788;-83